sensor_id;sensor_type;location;lat;lon;timestamp;temperature;humidity
46440;DHT22;32138;50.966;6.968;2023-07-13T00:01:07;20.60;72.90
46440;DHT22;32138;50.966;6.968;2023-07-13T00:02:38;20.60;72.90
46440;DHT22;32138;50.966;6.968;2023-07-13T00:04:09;20.60;72.70
46440;DHT22;32138;50.966;6.968;2023-07-13T00:05:40;20.50;73.30
46440;DHT22;32138;50.966;6.968;2023-07-13T00:07:11;20.50;73.20
46440;DHT22;32138;50.966;6.968;2023-07-13T00:08:44;20.60;73.90
46440;DHT22;32138;50.966;6.968;2023-07-13T00:10:15;20.40;73.30
46440;DHT22;32138;50.966;6.968;2023-07-13T00:11:51;20.40;73.90
46440;DHT22;32138;50.966;6.968;2023-07-13T00:13:23;20.20;74.00
46440;DHT22;32138;50.966;6.968;2023-07-13T00:14:55;20.10;74.80
46440;DHT22;32138;50.966;6.968;2023-07-13T00:16:30;19.90;75.30
46440;DHT22;32138;50.966;6.968;2023-07-13T00:18:01;20.00;75.30
46440;DHT22;32138;50.966;6.968;2023-07-13T00:19:31;19.90;75.20
46440;DHT22;32138;50.966;6.968;2023-07-13T00:21:02;19.90;75.20
46440;DHT22;32138;50.966;6.968;2023-07-13T00:22:36;20.00;75.10
46440;DHT22;32138;50.966;6.968;2023-07-13T00:24:08;20.00;75.60
46440;DHT22;32138;50.966;6.968;2023-07-13T00:25:45;19.90;75.80
46440;DHT22;32138;50.966;6.968;2023-07-13T00:27:16;19.90;75.90
46440;DHT22;32138;50.966;6.968;2023-07-13T00:28:48;19.90;76.10
46440;DHT22;32138;50.966;6.968;2023-07-13T00:30:19;19.80;76.20
46440;DHT22;32138;50.966;6.968;2023-07-13T00:31:49;19.70;76.70
46440;DHT22;32138;50.966;6.968;2023-07-13T00:33:20;19.80;76.40
46440;DHT22;32138;50.966;6.968;2023-07-13T00:34:53;19.90;76.30
46440;DHT22;32138;50.966;6.968;2023-07-13T00:36:24;19.90;76.20
46440;DHT22;32138;50.966;6.968;2023-07-13T00:37:55;19.90;76.20
46440;DHT22;32138;50.966;6.968;2023-07-13T00:39:27;19.90;76.60
46440;DHT22;32138;50.966;6.968;2023-07-13T00:40:58;19.90;76.40
46440;DHT22;32138;50.966;6.968;2023-07-13T00:42:29;19.70;76.80
46440;DHT22;32138;50.966;6.968;2023-07-13T00:44:00;19.60;76.90
46440;DHT22;32138;50.966;6.968;2023-07-13T00:47:01;19.50;77.40
46440;DHT22;32138;50.966;6.968;2023-07-13T00:48:34;19.50;77.30
46440;DHT22;32138;50.966;6.968;2023-07-13T00:50:09;19.60;77.30
46440;DHT22;32138;50.966;6.968;2023-07-13T00:51:47;19.50;77.70
46440;DHT22;32138;50.966;6.968;2023-07-13T00:53:20;19.60;78.00
46440;DHT22;32138;50.966;6.968;2023-07-13T00:54:51;19.50;77.30
46440;DHT22;32138;50.966;6.968;2023-07-13T00:56:22;19.50;77.40
46440;DHT22;32138;50.966;6.968;2023-07-13T00:57:53;19.50;77.80
46440;DHT22;32138;50.966;6.968;2023-07-13T00:59:25;19.50;77.80
46440;DHT22;32138;50.966;6.968;2023-07-13T01:00:56;19.50;77.90
46440;DHT22;32138;50.966;6.968;2023-07-13T01:02:28;19.40;78.10
46440;DHT22;32138;50.966;6.968;2023-07-13T01:03:59;19.50;78.20
46440;DHT22;32138;50.966;6.968;2023-07-13T01:05:32;19.50;78.20
46440;DHT22;32138;50.966;6.968;2023-07-13T01:07:06;19.40;78.90
46440;DHT22;32138;50.966;6.968;2023-07-13T01:08:36;19.60;77.90
46440;DHT22;32138;50.966;6.968;2023-07-13T01:10:08;19.40;78.50
46440;DHT22;32138;50.966;6.968;2023-07-13T01:11:39;19.30;78.90
46440;DHT22;32138;50.966;6.968;2023-07-13T01:13:11;19.30;78.90
46440;DHT22;32138;50.966;6.968;2023-07-13T01:14:42;19.10;79.50
46440;DHT22;32138;50.966;6.968;2023-07-13T01:16:25;19.20;79.40
46440;DHT22;32138;50.966;6.968;2023-07-13T01:17:57;19.20;79.20
46440;DHT22;32138;50.966;6.968;2023-07-13T01:19:39;19.40;78.60
46440;DHT22;32138;50.966;6.968;2023-07-13T01:21:11;19.30;79.00
46440;DHT22;32138;50.966;6.968;2023-07-13T01:22:41;19.40;79.00
46440;DHT22;32138;50.966;6.968;2023-07-13T01:24:12;19.20;79.40
46440;DHT22;32138;50.966;6.968;2023-07-13T01:25:43;19.30;79.30
46440;DHT22;32138;50.966;6.968;2023-07-13T01:27:16;19.10;79.50
46440;DHT22;32138;50.966;6.968;2023-07-13T01:28:51;19.40;79.20
46440;DHT22;32138;50.966;6.968;2023-07-13T01:30:22;19.40;79.20
46440;DHT22;32138;50.966;6.968;2023-07-13T01:31:52;19.30;79.50
46440;DHT22;32138;50.966;6.968;2023-07-13T01:33:24;19.20;79.50
46440;DHT22;32138;50.966;6.968;2023-07-13T01:34:55;19.10;80.30
46440;DHT22;32138;50.966;6.968;2023-07-13T01:36:26;19.00;80.20
46440;DHT22;32138;50.966;6.968;2023-07-13T01:37:56;19.20;80.10
46440;DHT22;32138;50.966;6.968;2023-07-13T01:39:27;19.00;80.40
46440;DHT22;32138;50.966;6.968;2023-07-13T01:40:58;19.00;80.80
46440;DHT22;32138;50.966;6.968;2023-07-13T01:42:28;19.00;80.50
46440;DHT22;32138;50.966;6.968;2023-07-13T01:43:59;19.00;80.70
46440;DHT22;32138;50.966;6.968;2023-07-13T01:45:30;19.10;80.50
46440;DHT22;32138;50.966;6.968;2023-07-13T01:47:01;19.10;80.10
46440;DHT22;32138;50.966;6.968;2023-07-13T01:48:32;19.00;80.50
46440;DHT22;32138;50.966;6.968;2023-07-13T01:50:03;18.80;81.50
46440;DHT22;32138;50.966;6.968;2023-07-13T01:51:34;18.80;81.40
46440;DHT22;32138;50.966;6.968;2023-07-13T01:53:05;18.80;81.80
46440;DHT22;32138;50.966;6.968;2023-07-13T01:54:37;18.70;82.10
46440;DHT22;32138;50.966;6.968;2023-07-13T01:56:07;18.80;81.80
46440;DHT22;32138;50.966;6.968;2023-07-13T01:57:38;19.10;81.00
46440;DHT22;32138;50.966;6.968;2023-07-13T01:59:09;19.10;81.10
46440;DHT22;32138;50.966;6.968;2023-07-13T02:00:40;19.30;80.70
46440;DHT22;32138;50.966;6.968;2023-07-13T02:02:11;19.20;80.70
46440;DHT22;32138;50.966;6.968;2023-07-13T02:03:41;19.10;81.20
46440;DHT22;32138;50.966;6.968;2023-07-13T02:05:13;19.00;81.60
46440;DHT22;32138;50.966;6.968;2023-07-13T02:06:44;19.00;81.90
46440;DHT22;32138;50.966;6.968;2023-07-13T02:08:15;18.90;82.00
46440;DHT22;32138;50.966;6.968;2023-07-13T02:09:48;18.90;82.20
46440;DHT22;32138;50.966;6.968;2023-07-13T02:11:19;19.10;81.70
46440;DHT22;32138;50.966;6.968;2023-07-13T02:12:50;19.30;81.20
46440;DHT22;32138;50.966;6.968;2023-07-13T02:14:21;19.20;81.50
46440;DHT22;32138;50.966;6.968;2023-07-13T02:15:52;19.10;81.70
46440;DHT22;32138;50.966;6.968;2023-07-13T02:17:23;19.00;82.00
46440;DHT22;32138;50.966;6.968;2023-07-13T02:18:53;18.80;82.90
46440;DHT22;32138;50.966;6.968;2023-07-13T02:20:26;18.80;83.00
46440;DHT22;32138;50.966;6.968;2023-07-13T02:21:56;18.70;83.10
46440;DHT22;32138;50.966;6.968;2023-07-13T02:23:27;18.90;82.60
46440;DHT22;32138;50.966;6.968;2023-07-13T02:24:58;18.90;82.70
46440;DHT22;32138;50.966;6.968;2023-07-13T02:26:29;19.00;82.30
46440;DHT22;32138;50.966;6.968;2023-07-13T02:27:59;18.80;82.50
46440;DHT22;32138;50.966;6.968;2023-07-13T02:29:30;18.90;82.50
46440;DHT22;32138;50.966;6.968;2023-07-13T02:31:19;18.80;82.80
46440;DHT22;32138;50.966;6.968;2023-07-13T02:32:50;18.80;83.00
46440;DHT22;32138;50.966;6.968;2023-07-13T02:34:21;18.70;83.60
46440;DHT22;32138;50.966;6.968;2023-07-13T02:35:52;18.70;83.20
46440;DHT22;32138;50.966;6.968;2023-07-13T02:37:23;18.80;83.40
46440;DHT22;32138;50.966;6.968;2023-07-13T02:38:54;18.70;83.70
46440;DHT22;32138;50.966;6.968;2023-07-13T02:40:24;18.60;83.70
46440;DHT22;32138;50.966;6.968;2023-07-13T02:41:56;18.70;83.20
46440;DHT22;32138;50.966;6.968;2023-07-13T02:43:26;18.60;83.60
46440;DHT22;32138;50.966;6.968;2023-07-13T02:44:57;18.90;83.10
46440;DHT22;32138;50.966;6.968;2023-07-13T02:46:29;19.00;82.40
46440;DHT22;32138;50.966;6.968;2023-07-13T02:48:01;18.90;83.10
46440;DHT22;32138;50.966;6.968;2023-07-13T02:49:32;18.90;82.80
46440;DHT22;32138;50.966;6.968;2023-07-13T02:51:03;18.90;83.20
46440;DHT22;32138;50.966;6.968;2023-07-13T02:52:34;18.70;83.30
46440;DHT22;32138;50.966;6.968;2023-07-13T02:54:05;18.80;83.50
46440;DHT22;32138;50.966;6.968;2023-07-13T02:55:35;18.70;83.40
46440;DHT22;32138;50.966;6.968;2023-07-13T02:57:06;18.70;83.20
46440;DHT22;32138;50.966;6.968;2023-07-13T02:58:37;18.50;84.10
46440;DHT22;32138;50.966;6.968;2023-07-13T03:00:09;18.30;84.20
46440;DHT22;32138;50.966;6.968;2023-07-13T03:01:40;18.30;84.00
46440;DHT22;32138;50.966;6.968;2023-07-13T03:03:12;18.40;84.30
46440;DHT22;32138;50.966;6.968;2023-07-13T03:04:44;18.30;85.00
46440;DHT22;32138;50.966;6.968;2023-07-13T03:06:15;18.20;84.60
46440;DHT22;32138;50.966;6.968;2023-07-13T03:07:46;18.20;84.80
46440;DHT22;32138;50.966;6.968;2023-07-13T03:09:17;18.10;85.00
46440;DHT22;32138;50.966;6.968;2023-07-13T03:10:48;18.10;85.50
46440;DHT22;32138;50.966;6.968;2023-07-13T03:12:19;18.20;85.90
46440;DHT22;32138;50.966;6.968;2023-07-13T03:13:49;18.20;85.00
46440;DHT22;32138;50.966;6.968;2023-07-13T03:15:20;18.30;84.70
46440;DHT22;32138;50.966;6.968;2023-07-13T03:16:51;18.10;84.90
46440;DHT22;32138;50.966;6.968;2023-07-13T03:18:22;18.20;84.80
46440;DHT22;32138;50.966;6.968;2023-07-13T03:19:53;18.50;84.50
46440;DHT22;32138;50.966;6.968;2023-07-13T03:21:25;18.40;84.60
46440;DHT22;32138;50.966;6.968;2023-07-13T03:22:55;18.20;85.30
46440;DHT22;32138;50.966;6.968;2023-07-13T03:24:26;18.20;85.20
46440;DHT22;32138;50.966;6.968;2023-07-13T03:26:08;18.10;85.30
46440;DHT22;32138;50.966;6.968;2023-07-13T03:27:41;18.00;85.70
46440;DHT22;32138;50.966;6.968;2023-07-13T03:29:12;18.00;85.90
46440;DHT22;32138;50.966;6.968;2023-07-13T03:30:43;17.90;86.20
46440;DHT22;32138;50.966;6.968;2023-07-13T03:32:13;17.90;86.50
46440;DHT22;32138;50.966;6.968;2023-07-13T03:33:44;17.90;86.30
46440;DHT22;32138;50.966;6.968;2023-07-13T03:35:15;17.90;86.50
46440;DHT22;32138;50.966;6.968;2023-07-13T03:36:46;17.80;86.90
46440;DHT22;32138;50.966;6.968;2023-07-13T03:38:17;17.80;86.90
46440;DHT22;32138;50.966;6.968;2023-07-13T03:39:48;17.80;86.80
46440;DHT22;32138;50.966;6.968;2023-07-13T03:41:19;17.90;86.60
46440;DHT22;32138;50.966;6.968;2023-07-13T03:42:51;18.00;86.20
46440;DHT22;32138;50.966;6.968;2023-07-13T03:44:21;17.90;86.50
46440;DHT22;32138;50.966;6.968;2023-07-13T03:45:52;17.90;86.60
46440;DHT22;32138;50.966;6.968;2023-07-13T03:47:23;18.00;86.60
46440;DHT22;32138;50.966;6.968;2023-07-13T03:48:54;17.90;86.80
46440;DHT22;32138;50.966;6.968;2023-07-13T03:50:25;17.80;86.70
46440;DHT22;32138;50.966;6.968;2023-07-13T03:51:55;17.70;87.10
46440;DHT22;32138;50.966;6.968;2023-07-13T03:53:26;17.70;87.20
46440;DHT22;32138;50.966;6.968;2023-07-13T03:54:57;17.60;87.40
46440;DHT22;32138;50.966;6.968;2023-07-13T03:56:28;17.70;87.60
46440;DHT22;32138;50.966;6.968;2023-07-13T03:58:30;17.70;87.40
46440;DHT22;32138;50.966;6.968;2023-07-13T04:00:03;17.70;87.70
46440;DHT22;32138;50.966;6.968;2023-07-13T04:01:34;17.70;87.90
46440;DHT22;32138;50.966;6.968;2023-07-13T04:03:05;17.70;87.70
46440;DHT22;32138;50.966;6.968;2023-07-13T04:04:35;17.70;88.00
46440;DHT22;32138;50.966;6.968;2023-07-13T04:06:08;17.60;88.10
46440;DHT22;32138;50.966;6.968;2023-07-13T04:07:45;17.60;88.70
46440;DHT22;32138;50.966;6.968;2023-07-13T04:09:16;17.60;88.90
46440;DHT22;32138;50.966;6.968;2023-07-13T04:10:48;17.60;89.00
46440;DHT22;32138;50.966;6.968;2023-07-13T04:12:18;17.70;88.60
46440;DHT22;32138;50.966;6.968;2023-07-13T04:13:50;17.90;87.50
46440;DHT22;32138;50.966;6.968;2023-07-13T04:15:21;18.00;87.90
46440;DHT22;32138;50.966;6.968;2023-07-13T04:16:51;17.80;88.50
46440;DHT22;32138;50.966;6.968;2023-07-13T04:18:24;17.80;88.50
46440;DHT22;32138;50.966;6.968;2023-07-13T04:19:55;17.80;88.50
46440;DHT22;32138;50.966;6.968;2023-07-13T04:21:30;17.90;88.50
46440;DHT22;32138;50.966;6.968;2023-07-13T04:23:01;17.80;88.70
46440;DHT22;32138;50.966;6.968;2023-07-13T04:24:32;17.70;89.50
46440;DHT22;32138;50.966;6.968;2023-07-13T04:26:03;17.70;89.00
46440;DHT22;32138;50.966;6.968;2023-07-13T04:27:34;17.60;89.50
46440;DHT22;32138;50.966;6.968;2023-07-13T04:29:06;17.60;89.70
46440;DHT22;32138;50.966;6.968;2023-07-13T04:30:37;17.60;90.10
46440;DHT22;32138;50.966;6.968;2023-07-13T04:32:08;17.50;90.30
46440;DHT22;32138;50.966;6.968;2023-07-13T04:33:39;17.50;90.30
46440;DHT22;32138;50.966;6.968;2023-07-13T04:35:10;17.60;90.40
46440;DHT22;32138;50.966;6.968;2023-07-13T04:36:41;17.60;90.30
46440;DHT22;32138;50.966;6.968;2023-07-13T04:38:11;17.70;90.10
46440;DHT22;32138;50.966;6.968;2023-07-13T04:39:42;17.80;90.40
46440;DHT22;32138;50.966;6.968;2023-07-13T04:41:14;17.70;90.40
46440;DHT22;32138;50.966;6.968;2023-07-13T04:42:46;17.70;90.30
46440;DHT22;32138;50.966;6.968;2023-07-13T04:44:17;17.70;90.40
46440;DHT22;32138;50.966;6.968;2023-07-13T04:45:47;17.70;90.50
46440;DHT22;32138;50.966;6.968;2023-07-13T04:47:18;17.80;90.50
46440;DHT22;32138;50.966;6.968;2023-07-13T04:48:50;17.80;90.60
46440;DHT22;32138;50.966;6.968;2023-07-13T04:50:23;17.80;90.60
46440;DHT22;32138;50.966;6.968;2023-07-13T04:51:54;17.90;90.70
46440;DHT22;32138;50.966;6.968;2023-07-13T04:53:25;17.90;90.80
46440;DHT22;32138;50.966;6.968;2023-07-13T04:54:57;17.90;90.70
46440;DHT22;32138;50.966;6.968;2023-07-13T04:56:27;17.80;90.90
46440;DHT22;32138;50.966;6.968;2023-07-13T04:57:58;17.80;91.00
46440;DHT22;32138;50.966;6.968;2023-07-13T04:59:29;17.80;91.10
46440;DHT22;32138;50.966;6.968;2023-07-13T05:01:02;17.90;91.10
46440;DHT22;32138;50.966;6.968;2023-07-13T05:02:34;18.00;90.90
46440;DHT22;32138;50.966;6.968;2023-07-13T05:04:05;18.00;91.00
46440;DHT22;32138;50.966;6.968;2023-07-13T05:05:36;18.00;91.00
46440;DHT22;32138;50.966;6.968;2023-07-13T05:07:06;18.00;91.30
46440;DHT22;32138;50.966;6.968;2023-07-13T05:08:37;18.00;91.20
46440;DHT22;32138;50.966;6.968;2023-07-13T05:10:08;18.10;91.40
46440;DHT22;32138;50.966;6.968;2023-07-13T05:11:39;18.00;91.30
46440;DHT22;32138;50.966;6.968;2023-07-13T05:13:10;17.90;91.60
46440;DHT22;32138;50.966;6.968;2023-07-13T05:14:41;18.00;91.60
46440;DHT22;32138;50.966;6.968;2023-07-13T05:16:11;17.90;91.80
46440;DHT22;32138;50.966;6.968;2023-07-13T05:17:42;18.20;91.50
46440;DHT22;32138;50.966;6.968;2023-07-13T05:19:13;18.30;91.50
46440;DHT22;32138;50.966;6.968;2023-07-13T05:20:43;18.10;91.40
46440;DHT22;32138;50.966;6.968;2023-07-13T05:22:14;18.20;91.60
46440;DHT22;32138;50.966;6.968;2023-07-13T05:23:45;18.30;91.60
46440;DHT22;32138;50.966;6.968;2023-07-13T05:25:16;18.50;91.40
46440;DHT22;32138;50.966;6.968;2023-07-13T05:26:47;18.50;91.30
46440;DHT22;32138;50.966;6.968;2023-07-13T05:28:17;18.40;91.50
46440;DHT22;32138;50.966;6.968;2023-07-13T05:29:49;18.50;91.60
46440;DHT22;32138;50.966;6.968;2023-07-13T05:31:20;18.50;91.60
46440;DHT22;32138;50.966;6.968;2023-07-13T05:32:50;18.40;91.70
46440;DHT22;32138;50.966;6.968;2023-07-13T05:34:21;18.20;92.20
46440;DHT22;32138;50.966;6.968;2023-07-13T05:35:52;18.20;92.10
46440;DHT22;32138;50.966;6.968;2023-07-13T05:37:23;18.40;91.90
46440;DHT22;32138;50.966;6.968;2023-07-13T05:38:53;18.60;91.70
46440;DHT22;32138;50.966;6.968;2023-07-13T05:40:24;18.60;91.80
46440;DHT22;32138;50.966;6.968;2023-07-13T05:41:55;18.60;91.80
46440;DHT22;32138;50.966;6.968;2023-07-13T05:43:26;18.70;91.70
46440;DHT22;32138;50.966;6.968;2023-07-13T05:44:57;18.80;91.60
46440;DHT22;32138;50.966;6.968;2023-07-13T05:46:28;18.80;91.60
46440;DHT22;32138;50.966;6.968;2023-07-13T05:47:58;18.70;91.70
46440;DHT22;32138;50.966;6.968;2023-07-13T05:49:29;18.80;91.70
46440;DHT22;32138;50.966;6.968;2023-07-13T05:51:01;18.80;91.70
46440;DHT22;32138;50.966;6.968;2023-07-13T05:52:32;18.90;91.50
46440;DHT22;32138;50.966;6.968;2023-07-13T05:54:03;19.10;91.40
46440;DHT22;32138;50.966;6.968;2023-07-13T05:55:34;19.20;91.20
46440;DHT22;32138;50.966;6.968;2023-07-13T05:57:05;19.00;91.50
46440;DHT22;32138;50.966;6.968;2023-07-13T05:58:36;19.10;91.40
46440;DHT22;32138;50.966;6.968;2023-07-13T06:00:08;19.10;91.40
46440;DHT22;32138;50.966;6.968;2023-07-13T06:01:39;19.00;91.40
46440;DHT22;32138;50.966;6.968;2023-07-13T06:03:11;18.90;91.80
46440;DHT22;32138;50.966;6.968;2023-07-13T06:04:42;18.80;92.10
46440;DHT22;32138;50.966;6.968;2023-07-13T06:06:13;18.80;92.10
46440;DHT22;32138;50.966;6.968;2023-07-13T06:07:45;18.60;92.40
46440;DHT22;32138;50.966;6.968;2023-07-13T06:09:15;18.70;92.50
46440;DHT22;32138;50.966;6.968;2023-07-13T06:10:46;18.80;92.30
46440;DHT22;32138;50.966;6.968;2023-07-13T06:12:17;18.70;92.40
46440;DHT22;32138;50.966;6.968;2023-07-13T06:13:48;18.80;92.60
46440;DHT22;32138;50.966;6.968;2023-07-13T06:15:19;18.80;92.40
46440;DHT22;32138;50.966;6.968;2023-07-13T06:16:50;18.90;92.40
46440;DHT22;32138;50.966;6.968;2023-07-13T06:18:20;18.90;92.50
46440;DHT22;32138;50.966;6.968;2023-07-13T06:19:51;18.90;92.50
46440;DHT22;32138;50.966;6.968;2023-07-13T06:21:22;18.90;92.60
46440;DHT22;32138;50.966;6.968;2023-07-13T06:22:53;19.00;92.40
46440;DHT22;32138;50.966;6.968;2023-07-13T06:24:25;19.20;92.50
46440;DHT22;32138;50.966;6.968;2023-07-13T06:25:55;19.10;92.90
46440;DHT22;32138;50.966;6.968;2023-07-13T06:27:27;19.00;92.60
46440;DHT22;32138;50.966;6.968;2023-07-13T06:28:58;19.10;92.80
46440;DHT22;32138;50.966;6.968;2023-07-13T06:30:28;19.30;92.60
46440;DHT22;32138;50.966;6.968;2023-07-13T06:31:59;19.40;92.30
46440;DHT22;32138;50.966;6.968;2023-07-13T06:33:30;19.30;92.10
46440;DHT22;32138;50.966;6.968;2023-07-13T06:35:00;19.20;92.40
46440;DHT22;32138;50.966;6.968;2023-07-13T06:36:31;19.30;92.20
46440;DHT22;32138;50.966;6.968;2023-07-13T06:38:02;19.50;92.00
46440;DHT22;32138;50.966;6.968;2023-07-13T06:39:33;19.50;92.10
46440;DHT22;32138;50.966;6.968;2023-07-13T06:41:05;19.50;92.20
46440;DHT22;32138;50.966;6.968;2023-07-13T06:42:37;19.50;92.20
46440;DHT22;32138;50.966;6.968;2023-07-13T06:44:08;19.50;92.40
46440;DHT22;32138;50.966;6.968;2023-07-13T06:45:45;19.40;92.30
46440;DHT22;32138;50.966;6.968;2023-07-13T06:47:19;19.20;92.60
46440;DHT22;32138;50.966;6.968;2023-07-13T06:48:50;19.40;92.60
46440;DHT22;32138;50.966;6.968;2023-07-13T06:50:20;19.60;92.40
46440;DHT22;32138;50.966;6.968;2023-07-13T06:51:51;19.60;92.50
46440;DHT22;32138;50.966;6.968;2023-07-13T06:53:22;19.60;92.50
46440;DHT22;32138;50.966;6.968;2023-07-13T06:54:53;19.50;92.50
46440;DHT22;32138;50.966;6.968;2023-07-13T06:56:24;19.40;92.70
46440;DHT22;32138;50.966;6.968;2023-07-13T06:57:55;19.30;92.80
46440;DHT22;32138;50.966;6.968;2023-07-13T06:59:25;19.20;93.10
46440;DHT22;32138;50.966;6.968;2023-07-13T07:00:56;19.20;93.20
46440;DHT22;32138;50.966;6.968;2023-07-13T07:02:27;19.20;93.30
46440;DHT22;32138;50.966;6.968;2023-07-13T07:03:58;19.10;93.30
46440;DHT22;32138;50.966;6.968;2023-07-13T07:05:28;19.00;93.50
46440;DHT22;32138;50.966;6.968;2023-07-13T07:06:59;19.10;93.30
46440;DHT22;32138;50.966;6.968;2023-07-13T07:08:30;19.30;93.20
46440;DHT22;32138;50.966;6.968;2023-07-13T07:10:01;19.50;93.00
46440;DHT22;32138;50.966;6.968;2023-07-13T07:11:32;19.50;92.90
46440;DHT22;32138;50.966;6.968;2023-07-13T07:13:03;19.80;92.50
46440;DHT22;32138;50.966;6.968;2023-07-13T07:14:34;19.90;92.10
46440;DHT22;32138;50.966;6.968;2023-07-13T07:16:05;19.90;92.00
46440;DHT22;32138;50.966;6.968;2023-07-13T07:17:37;19.80;92.20
46440;DHT22;32138;50.966;6.968;2023-07-13T07:19:08;19.80;92.30
46440;DHT22;32138;50.966;6.968;2023-07-13T07:20:38;19.90;92.50
46440;DHT22;32138;50.966;6.968;2023-07-13T07:22:09;19.90;92.20
46440;DHT22;32138;50.966;6.968;2023-07-13T07:23:40;20.00;92.00
46440;DHT22;32138;50.966;6.968;2023-07-13T07:25:11;19.90;92.20
46440;DHT22;32138;50.966;6.968;2023-07-13T07:26:42;19.80;92.50
46440;DHT22;32138;50.966;6.968;2023-07-13T07:28:15;19.90;92.20
46440;DHT22;32138;50.966;6.968;2023-07-13T07:29:48;20.00;92.00
46440;DHT22;32138;50.966;6.968;2023-07-13T07:31:19;20.10;91.90
46440;DHT22;32138;50.966;6.968;2023-07-13T07:32:50;20.30;91.60
46440;DHT22;32138;50.966;6.968;2023-07-13T07:34:20;20.40;91.40
46440;DHT22;32138;50.966;6.968;2023-07-13T07:35:52;20.50;91.30
46440;DHT22;32138;50.966;6.968;2023-07-13T07:37:22;20.60;91.10
46440;DHT22;32138;50.966;6.968;2023-07-13T07:38:54;20.70;91.10
46440;DHT22;32138;50.966;6.968;2023-07-13T07:40:24;20.60;91.30
46440;DHT22;32138;50.966;6.968;2023-07-13T07:41:56;20.70;90.90
46440;DHT22;32138;50.966;6.968;2023-07-13T07:43:27;20.50;91.20
46440;DHT22;32138;50.966;6.968;2023-07-13T07:44:58;20.40;91.40
46440;DHT22;32138;50.966;6.968;2023-07-13T07:46:29;20.30;91.70
46440;DHT22;32138;50.966;6.968;2023-07-13T07:48:00;20.30;91.60
46440;DHT22;32138;50.966;6.968;2023-07-13T07:49:31;20.30;91.50
46440;DHT22;32138;50.966;6.968;2023-07-13T07:51:01;20.50;91.30
46440;DHT22;32138;50.966;6.968;2023-07-13T07:52:32;20.60;91.40
46440;DHT22;32138;50.966;6.968;2023-07-13T07:54:04;20.60;91.40
46440;DHT22;32138;50.966;6.968;2023-07-13T07:55:35;20.70;91.20
46440;DHT22;32138;50.966;6.968;2023-07-13T07:57:06;20.60;91.10
46440;DHT22;32138;50.966;6.968;2023-07-13T07:58:38;20.40;91.60
46440;DHT22;32138;50.966;6.968;2023-07-13T08:00:09;20.30;91.60
46440;DHT22;32138;50.966;6.968;2023-07-13T08:01:40;20.40;91.40
46440;DHT22;32138;50.966;6.968;2023-07-13T08:03:11;20.50;91.10
46440;DHT22;32138;50.966;6.968;2023-07-13T08:04:42;20.50;91.10
46440;DHT22;32138;50.966;6.968;2023-07-13T08:06:12;20.60;91.30
46440;DHT22;32138;50.966;6.968;2023-07-13T08:07:43;20.60;91.30
46440;DHT22;32138;50.966;6.968;2023-07-13T08:09:14;20.70;91.20
46440;DHT22;32138;50.966;6.968;2023-07-13T08:10:45;20.60;91.30
46440;DHT22;32138;50.966;6.968;2023-07-13T08:12:16;20.40;91.40
46440;DHT22;32138;50.966;6.968;2023-07-13T08:13:46;20.50;91.60
46440;DHT22;32138;50.966;6.968;2023-07-13T08:15:17;20.50;91.50
46440;DHT22;32138;50.966;6.968;2023-07-13T08:16:50;20.50;91.70
46440;DHT22;32138;50.966;6.968;2023-07-13T08:18:21;20.50;91.80
46440;DHT22;32138;50.966;6.968;2023-07-13T08:19:52;20.60;91.60
46440;DHT22;32138;50.966;6.968;2023-07-13T08:21:23;20.60;91.60
46440;DHT22;32138;50.966;6.968;2023-07-13T08:22:54;20.70;91.90
46440;DHT22;32138;50.966;6.968;2023-07-13T08:24:25;20.80;91.30
46440;DHT22;32138;50.966;6.968;2023-07-13T08:25:55;20.70;91.20
46440;DHT22;32138;50.966;6.968;2023-07-13T08:27:28;20.50;91.60
46440;DHT22;32138;50.966;6.968;2023-07-13T08:29:00;20.20;91.80
46440;DHT22;32138;50.966;6.968;2023-07-13T08:30:31;20.20;92.10
46440;DHT22;32138;50.966;6.968;2023-07-13T08:32:01;20.30;91.90
46440;DHT22;32138;50.966;6.968;2023-07-13T08:33:34;20.30;92.20
46440;DHT22;32138;50.966;6.968;2023-07-13T08:35:06;20.30;92.60
46440;DHT22;32138;50.966;6.968;2023-07-13T08:36:37;20.40;92.30
46440;DHT22;32138;50.966;6.968;2023-07-13T08:38:07;20.50;91.90
46440;DHT22;32138;50.966;6.968;2023-07-13T08:39:38;20.60;92.30
46440;DHT22;32138;50.966;6.968;2023-07-13T08:41:12;20.70;91.90
46440;DHT22;32138;50.966;6.968;2023-07-13T08:42:50;20.90;91.40
46440;DHT22;32138;50.966;6.968;2023-07-13T08:46:37;20.90;90.80
46440;DHT22;32138;50.966;6.968;2023-07-13T08:48:16;20.90;90.80
46440;DHT22;32138;50.966;6.968;2023-07-13T08:49:56;20.70;91.10
46440;DHT22;32138;50.966;6.968;2023-07-13T08:51:48;20.80;91.10
46440;DHT22;32138;50.966;6.968;2023-07-13T08:53:22;20.80;91.10
46440;DHT22;32138;50.966;6.968;2023-07-13T08:54:56;20.90;90.70
46440;DHT22;32138;50.966;6.968;2023-07-13T08:56:30;20.90;90.30
46440;DHT22;32138;50.966;6.968;2023-07-13T08:58:15;20.90;90.30
46440;DHT22;32138;50.966;6.968;2023-07-13T08:59:48;20.90;90.50
46440;DHT22;32138;50.966;6.968;2023-07-13T09:03:36;21.00;90.30
46440;DHT22;32138;50.966;6.968;2023-07-13T09:05:14;20.90;90.60
46440;DHT22;32138;50.966;6.968;2023-07-13T09:06:58;20.70;90.60
46440;DHT22;32138;50.966;6.968;2023-07-13T09:15:59;20.70;90.90
46440;DHT22;32138;50.966;6.968;2023-07-13T09:17:37;20.60;91.10
46440;DHT22;32138;50.966;6.968;2023-07-13T09:19:20;20.60;91.20
46440;DHT22;32138;50.966;6.968;2023-07-13T09:21:00;20.60;91.20
46440;DHT22;32138;50.966;6.968;2023-07-13T09:22:36;20.80;91.00
46440;DHT22;32138;50.966;6.968;2023-07-13T09:24:36;20.90;90.90
46440;DHT22;32138;50.966;6.968;2023-07-13T09:26:20;20.80;90.20
46440;DHT22;32138;50.966;6.968;2023-07-13T09:27:53;20.90;90.10
46440;DHT22;32138;50.966;6.968;2023-07-13T09:29:32;21.00;90.20
46440;DHT22;32138;50.966;6.968;2023-07-13T09:31:10;21.20;89.80
46440;DHT22;32138;50.966;6.968;2023-07-13T09:32:47;21.30;89.60
46440;DHT22;32138;50.966;6.968;2023-07-13T09:34:21;21.40;89.00
46440;DHT22;32138;50.966;6.968;2023-07-13T09:35:52;21.40;89.30
46440;DHT22;32138;50.966;6.968;2023-07-13T09:37:29;21.60;89.20
46440;DHT22;32138;50.966;6.968;2023-07-13T09:41:16;21.60;87.70
46440;DHT22;32138;50.966;6.968;2023-07-13T09:43:02;21.80;87.70
46440;DHT22;32138;50.966;6.968;2023-07-13T09:44:51;21.60;87.50
46440;DHT22;32138;50.966;6.968;2023-07-13T09:46:24;21.70;87.40
46440;DHT22;32138;50.966;6.968;2023-07-13T09:48:03;21.80;86.70
46440;DHT22;32138;50.966;6.968;2023-07-13T09:49:37;21.80;87.10
46440;DHT22;32138;50.966;6.968;2023-07-13T09:51:14;21.90;86.50
46440;DHT22;32138;50.966;6.968;2023-07-13T09:52:49;21.90;86.90
46440;DHT22;32138;50.966;6.968;2023-07-13T09:54:23;21.80;87.30
46440;DHT22;32138;50.966;6.968;2023-07-13T09:55:55;22.00;87.00
46440;DHT22;32138;50.966;6.968;2023-07-13T09:57:27;22.30;86.30